Happy Valentine's Day! 

Flight Track Log - Related Links

Times and Time Zones

All times are in EDT time to prevent confusion due to time zone crossing. See the N4202L flight status page for this flight to view local times or setup timezone preferences in your user account.


Time Position Orientation Groundspeed Altitude Reporting Facility
EDT Latitude Longitude Course Direction KTS MPH feet Rate Location/Type
Sun 06:34:40 PM 40.0958 -78.2653 174° South 124 143 4,600  Level Cleveland Center
Sun 06:35:41 PM 40.0644 -78.2608 174° South 125 144 4,500  Descending Cleveland Center
Sun 06:37:41 PM 39.9889 -78.2372 167° South 145 167 4,600  Climbing Washington Center
Sun 06:38:41 PM 39.9536 -78.2278 168° South 145 167 4,500  Descending Washington Center
Sun 06:39:42 PM 39.9206 -78.2156 164° South 140 161 4,600 50 Climbing Washington Center
Sun 06:40:42 PM 39.8853 -78.2061 168° South 140 161 4,600 -51 Level Washington Center
Sun 06:41:39 PM 39.8481 -78.1942 166° South 140 161 4,500  Descending Washington Center
Sun 06:42:40 PM 39.8150 -78.1847 168° South 135 155 4,600 49 Climbing Washington Center
Sun 06:43:41 PM 39.7797 -78.1753 168° South 135 155 4,600  Level Washington Center
Sun 06:44:41 PM 39.7444 -78.1661 169° South 135 155 4,600 -50 Level Washington Center
Sun 06:45:42 PM 39.7094 -78.1567 168° South 135 155 4,500  Descending Washington Center
Sun 06:46:42 PM 39.6761 -78.1500 171° South 135 155 4,600  Climbing Washington Center
Sun 06:47:39 PM 39.6411 -78.1381 165° South 135 155 4,500 -51 Descending Washington Center
Sun 06:48:40 PM 39.6058 -78.1286 168° South 130 150 4,500  Level Washington Center
Sun 06:49:41 PM 39.5725 -78.1194 168° South 130 150 4,500  Level Washington Center
Sun 06:50:41 PM 39.5375 -78.1075 165° South 125 144 4,500  Level Washington Center
Sun 06:51:39 PM 39.5042 -78.0983 168° South 125 144 4,500 50 Level Washington Center
Sun 06:52:40 PM 39.4689 -78.0917 172° South 125 144 4,600 49 Climbing Washington Center
Sun 06:53:42 PM 39.4358 -78.0825 168° South 125 144 4,600  Level Washington Center
Sun 06:54:39 PM 39.3986 -78.0731 169° South 125 144 4,600  Level Washington Center
Sun 06:55:41 PM 39.3633 -78.0639 169° South 125 144 4,600  Level Washington Center
Sun 06:56:42 PM 39.3300 -78.0547 168° South 125 144 4,600  Level Washington Center
Sun 06:57:42 PM 39.2950 -78.0428 165° South 125 144 4,600 -32 Level Washington Center
Sun 06:59:52 PM 39.2167 -78.0167 166° South 128 147 4,500 -33 Descending Potomac TRACON
Sun 07:00:46 PM 39.1833 -78.0167 180° South 127 146 4,500 53 Level Potomac TRACON
Sun 07:01:46 PM 39.1500 -78.0000 159° South 131 151 4,600 50 Climbing Potomac TRACON
Sun 07:02:46 PM 39.1167 -78.0000 180° South 131 151 4,600  Level Potomac TRACON
Sun 07:03:46 PM 39.0833 -77.9833 159° South 133 153 4,600 -53 Level Potomac TRACON
Sun 07:04:40 PM 39.0500 -77.9833 180° South 135 155 4,500  Descending Potomac TRACON
Sun 07:05:40 PM 39.0167 -77.9667 159° South 130 150 4,600  Climbing Potomac TRACON
Sun 07:06:40 PM 38.9667 -77.9500 165° South 132 152 4,500 -48 Descending Potomac TRACON
Sun 07:07:46 PM 38.9333 -77.9500 180° South 127 146 4,500 50 Level Potomac TRACON
Sun 07:08:40 PM 38.9000 -77.9333 159° South 136 157 4,600 100 Climbing Potomac TRACON
Sun 07:09:46 PM 38.8667 -77.9167 159° South 132 152 4,700 -50 Climbing Potomac TRACON
Sun 07:10:41 PM 38.8333 -77.9167 180° South 130 150 4,500 -52 Descending Potomac TRACON
Sun 07:11:41 PM 38.8000 -77.9000 159° South 136 157 4,600 48 Climbing Potomac TRACON
Sun 07:12:47 PM 38.7500 -77.9000 180° South 133 153 4,600  Level Potomac TRACON
Sun 07:13:41 PM 38.7167 -77.8833 159° South 132 152 4,600  Level Potomac TRACON
Sun 07:14:41 PM 38.6833 -77.8833 180° South 130 150 4,600 -50 Level Potomac TRACON
Sun 07:15:41 PM 38.6500 -77.8667 159° South 133 153 4,500  Descending Potomac TRACON
Sun 07:16:41 PM 38.6167 -77.8667 180° South 128 147 4,600 53 Climbing Potomac TRACON
Sun 07:17:35 PM 38.5833 -77.8500 159° South 132 152 4,600 -53 Level Potomac TRACON
Sun 07:18:35 PM 38.5500 -77.8500 180° South 130 150 4,500 -50 Descending Potomac TRACON
Sun 07:19:35 PM 38.5167 -77.8333 159° South 129 148 4,500 50 Level Potomac TRACON
Sun 07:20:35 PM 38.4833 -77.8167 159° South 133 153 4,600 50 Climbing Potomac TRACON
Sun 07:21:36 PM 38.4500 -77.8167 180° South 137 158 4,600 -50 Level Potomac TRACON
Sun 07:22:36 PM 38.4000 -77.8000 165° South 135 155 4,500  Descending Potomac TRACON
Sun 07:23:36 PM 38.3667 -77.7833 159° South 135 155 4,600 50 Climbing Potomac TRACON
Sun 07:24:36 PM 38.3333 -77.7833 180° South 137 158 4,600  Level Potomac TRACON
Sun 07:25:36 PM 38.3000 -77.7667 159° South 135 155 4,600  Level Potomac TRACON
Sun 07:26:36 PM 38.2667 -77.7667 180° South 130 150 4,600  Level Potomac TRACON
Sun 07:27:42 PM 38.2167 -77.7500 165° South 135 155 4,600  Level Potomac TRACON
Sun 07:28:42 PM 38.1833 -77.7333 159° South 153 176 4,600  Level Potomac TRACON
Sun 07:29:42 PM 38.1500 -77.7333 180° South 134 154 4,600  Level Potomac TRACON
Sun 07:30:42 PM 38.1167 -77.7167 159° South 137 158 4,600  Level Potomac TRACON
Sun 07:31:48 PM 38.0667 -77.7000 165° South 143 165 4,600  Level Potomac TRACON
Sun 07:32:42 PM 38.0333 -77.7000 180° South 144 166 4,600 53 Level Potomac TRACON
Sun 07:33:42 PM 38.0000 -77.6833 158° South 145 167 4,700  Climbing Potomac TRACON
Sun 07:34:42 PM 37.9667 -77.6833 180° South 140 161 4,600 -100 Descending Potomac TRACON
Sun 07:35:42 PM 37.9167 -77.6667 165° South 141 162 4,500  Descending Potomac TRACON
Sun 07:36:42 PM 37.8833 -77.6500 158° South 140 161 4,600 53 Climbing Potomac TRACON
Sun 07:37:36 PM 37.8500 -77.6500 180° South 145 167 4,600  Level Potomac TRACON
Sun 07:38:36 PM 37.8167 -77.6333 158° South 143 165 4,600  Level Potomac TRACON
Sun 07:39:37 PM 37.7833 -77.6167 158° South 147 169 4,600 -50 Level Potomac TRACON
Sun 07:40:37 PM 37.7333 -77.6167 180° South 138 159 4,500 -50 Descending Potomac TRACON
Sun 07:41:37 PM 37.7000 -77.6000 158° South 137 158 4,500 -250 Level Potomac TRACON
Sun 07:42:37 PM 37.6667 -77.6000 180° South 138 159 4,000 -476 Descending Potomac TRACON
Sun 07:43:43 PM 37.6167 -77.5833 165° South 138 159 3,500 -496 Descending Potomac TRACON
Sun 07:44:38 PM 37.5833 -77.5667 158° South 137 158 3,000 -545 Descending Potomac TRACON

Login

Don't have an account? Register now (free) for customized features, flight alerts, and more!